Time;durP1;ratioP1;P1;durP2;ratioP2;P2;SDS_P1;SDS_P2;PMS_P1;PMS_P2;Temp;Humidity;BMP_temperature;BMP_pressure;BME280_temperature;BME280_humidity;BME280_pressure;Samples;Min_cycle;Max_cycle;Signal;HPM_P1;HPM_P2
2023/04/11 00:01:10;;;;;;;10.75;2.30;;;8.80;99.90;;;;;;5104528;27;20027;-70
2023/04/11 00:03:37;;;;;;;10.98;2.72;;;8.70;99.90;;;;;;5116150;27;20046;-71
2023/04/11 00:06:03;;;;;;;12.52;2.90;;;8.60;99.90;;;;;;5117648;27;20046;-71
2023/04/11 00:08:29;;;;;;;8.73;2.67;;;8.60;99.90;;;;;;5104622;27;20259;-71
2023/04/11 00:10:55;;;;;;;7.25;2.53;;;8.50;99.90;;;;;;5128080;27;20400;-72
2023/04/11 00:13:22;;;;;;;11.20;2.97;;;8.50;99.90;;;;;;5114547;27;20468;-73
2023/04/11 00:15:48;;;;;;;10.77;2.55;;;8.40;99.90;;;;;;5117443;27;20043;-72
2023/04/11 00:18:14;;;;;;;9.35;2.60;;;8.40;99.90;;;;;;5127893;27;20081;-72
2023/04/11 00:20:39;;;;;;;10.23;2.63;;;8.40;99.90;;;;;;5125982;27;20035;-70
2023/04/11 00:23:05;;;;;;;18.50;2.72;;;8.60;99.90;;;;;;5112747;27;20055;-72
2023/04/11 00:25:31;;;;;;;11.20;2.65;;;8.30;99.90;;;;;;5114323;27;20085;-72
2023/04/11 00:27:57;;;;;;;10.75;2.35;;;8.20;99.90;;;;;;5119729;27;20126;-74
2023/04/11 00:30:23;;;;;;;13.23;2.50;;;8.20;99.90;;;;;;5120832;27;20122;-71
2023/04/11 00:32:49;;;;;;;18.25;2.90;;;8.80;99.90;;;;;;5119024;27;20039;-72
2023/04/11 00:35:14;;;;;;;13.35;2.90;;;8.10;99.90;;;;;;5126434;27;20046;-71
2023/04/11 00:37:43;;;;;;;18.38;3.53;;;8.10;99.90;;;;;;5096580;27;20039;-72
2023/04/11 00:40:11;;;;;;;16.88;4.43;;;8.00;99.90;;;;;;5121922;27;20035;-71
2023/04/11 00:42:37;;;;;;;13.18;3.10;;;8.00;99.90;;;;;;5130898;27;20039;-71
2023/04/11 00:45:03;;;;;;;17.10;3.33;;;7.90;99.90;;;;;;5126543;27;20107;-71
2023/04/11 00:47:32;;;;;;;14.57;3.10;;;7.80;99.90;;;;;;5123295;27;20543;-72
2023/04/11 00:49:58;;;;;;;15.93;4.10;;;7.80;99.90;;;;;;5121635;27;20472;-72
2023/04/11 00:52:24;;;;;;;20.45;3.72;;;7.70;99.90;;;;;;5114795;27;20138;-70
2023/04/11 00:54:50;;;;;;;28.30;3.63;;;7.60;99.90;;;;;;5079760;28;20043;-72
2023/04/11 00:57:16;;;;;;;17.42;4.20;;;7.70;99.90;;;;;;5113573;27;20476;-71
2023/04/11 00:59:43;;;;;;;20.05;3.90;;;7.60;99.90;;;;;;5101442;28;20050;-71
2023/04/11 01:02:09;;;;;;;20.17;3.70;;;7.60;99.90;;;;;;5094122;28;20381;-71
2023/04/11 01:04:35;;;;;;;23.95;4.13;;;7.70;99.90;;;;;;5097378;28;20039;-70
2023/04/11 01:07:06;;;;;;;25.20;3.65;;;7.50;99.90;;;;;;5117869;27;20104;-71
2023/04/11 01:09:34;;;;;;;21.48;3.67;;;7.50;99.90;;;;;;5116741;27;20044;-71
2023/04/11 01:12:01;;;;;;;24.85;4.28;;;7.50;99.90;;;;;;5119441;27;20117;-72
2023/04/11 01:14:28;;;;;;;27.77;4.00;;;7.40;99.90;;;;;;5121506;22;20079;-80
2023/04/11 01:16:55;;;;;;;20.05;3.83;;;7.40;99.90;;;;;;5089310;28;20123;-79
2023/04/11 01:19:24;;;;;;;17.83;3.83;;;7.70;99.90;;;;;;5096747;28;20070;-81
2023/04/11 01:21:51;;;;;;;21.65;4.03;;;8.20;99.90;;;;;;5072110;28;20083;-79
2023/04/11 01:24:17;;;;;;;20.50;3.70;;;7.40;99.90;;;;;;5091133;28;20051;-79
2023/04/11 01:26:43;;;;;;;19.63;4.07;;;7.30;99.90;;;;;;5072487;28;20408;-78
2023/04/11 01:29:09;;;;;;;22.05;4.07;;;7.30;99.90;;;;;;5094623;28;20035;-80
2023/04/11 01:31:35;;;;;;;22.00;4.45;;;7.30;99.90;;;;;;5094271;28;20113;-78
2023/04/11 01:34:01;;;;;;;22.98;3.58;;;7.30;99.90;;;;;;5097524;28;20118;-79
2023/04/11 01:36:28;;;;;;;27.13;5.22;;;7.80;99.90;;;;;;5100747;28;20044;-79
2023/04/11 01:38:54;;;;;;;15.43;3.50;;;7.20;99.90;;;;;;5073251;28;20667;-79
2023/04/11 01:41:21;;;;;;;17.67;4.43;;;7.20;99.90;;;;;;5057543;28;20043;-78
2023/04/11 01:43:47;;;;;;;21.67;4.63;;;7.20;99.90;;;;;;5092836;28;20090;-80
2023/04/11 01:46:13;;;;;;;20.67;4.22;;;7.30;99.90;;;;;;5083717;28;20036;-82
2023/04/11 01:48:40;;;;;;;20.42;4.45;;;7.30;99.90;;;;;;5083078;28;20074;-79
2023/04/11 01:51:06;;;;;;;12.15;2.83;;;7.30;99.90;;;;;;5088984;28;20047;-82
2023/04/11 01:53:32;;;;;;;14.18;3.10;;;7.30;99.90;;;;;;5089683;28;20036;-80
2023/04/11 01:55:58;;;;;;;14.00;2.55;;;7.30;99.90;;;;;;5082555;28;20040;-82
2023/04/11 01:58:23;;;;;;;12.20;2.80;;;7.30;99.90;;;;;;5097243;28;20044;-79
2023/04/11 02:00:49;;;;;;;13.73;2.72;;;7.30;99.90;;;;;;5099655;28;20038;-80
2023/04/11 02:03:16;;;;;;;12.80;2.28;;;7.40;99.90;;;;;;5102415;22;20450;-71
2023/04/11 02:05:42;;;;;;;10.18;2.65;;;7.40;99.90;;;;;;5093435;28;20104;-71
2023/04/11 02:08:07;;;;;;;10.70;2.33;;;7.40;99.90;;;;;;5073076;28;20044;-70
2023/04/11 02:10:33;;;;;;;9.98;2.40;;;7.40;99.90;;;;;;5090212;28;20481;-71
2023/04/11 02:12:59;;;;;;;3.83;1.50;;;7.40;99.90;;;;;;5095845;28;20040;-70
2023/04/11 02:15:25;;;;;;;9.02;1.80;;;7.40;99.90;;;;;;5088009;28;20048;-70
2023/04/11 02:17:53;;;;;;;8.10;1.67;;;7.40;99.90;;;;;;5075390;28;20414;-71
2023/04/11 02:20:22;;;;;;;6.00;1.60;;;7.40;99.90;;;;;;5070236;28;20478;-70
2023/04/11 02:22:47;;;;;;;5.85;1.65;;;7.40;99.90;;;;;;5065593;28;20041;-70
2023/04/11 02:25:13;;;;;;;4.45;1.33;;;7.40;99.90;;;;;;5081858;28;20070;-70
2023/04/11 02:27:39;;;;;;;2.70;1.20;;;7.40;99.90;;;;;;5078910;28;20044;-70
2023/04/11 02:30:05;;;;;;;6.72;1.83;;;7.40;99.90;;;;;;5077132;28;20409;-70
2023/04/11 02:32:35;;;;;;;6.65;1.67;;;7.40;99.90;;;;;;5073009;28;20052;-70
2023/04/11 02:35:01;;;;;;;8.90;1.65;;;7.40;99.90;;;;;;5076725;28;20101;-70
2023/04/11 02:37:27;;;;;;;10.85;2.17;;;7.30;99.90;;;;;;5077888;28;20509;-71
2023/04/11 02:39:54;;;;;;;7.40;2.05;;;7.60;99.90;;;;;;5071255;28;20183;-71
2023/04/11 02:42:19;;;;;;;5.32;1.58;;;7.40;99.90;;;;;;5057506;28;20497;-70
2023/04/11 02:44:45;;;;;;;9.63;1.73;;;7.40;99.90;;;;;;5078591;28;20044;-71
2023/04/11 02:47:11;;;;;;;6.38;1.27;;;7.60;99.90;;;;;;5078081;28;20036;-71
2023/04/11 02:49:36;;;;;;;7.80;2.20;;;7.40;99.90;;;;;;5040453;28;20037;-72
2023/04/11 02:52:02;;;;;;;9.50;1.58;;;7.40;99.90;;;;;;5071573;28;20153;-70
2023/04/11 02:54:28;;;;;;;8.00;1.67;;;7.40;99.90;;;;;;5070973;28;20421;-71
2023/04/11 02:56:55;;;;;;;6.15;1.90;;;7.40;99.90;;;;;;5076390;28;20043;-71
2023/04/11 02:59:21;;;;;;;5.47;1.52;;;7.50;99.90;;;;;;5080941;28;20345;-71
2023/04/11 03:01:46;;;;;;;8.77;1.73;;;7.40;99.90;;;;;;5076397;28;20040;-71
2023/04/11 03:04:12;;;;;;;9.07;1.75;;;7.40;99.90;;;;;;5074998;28;20508;-71
2023/04/11 03:06:38;;;;;;;11.52;1.77;;;7.40;99.90;;;;;;5070585;28;20253;-71
2023/04/11 03:09:03;;;;;;;10.05;2.35;;;7.40;99.90;;;;;;5074462;28;20041;-71
2023/04/11 03:11:29;;;;;;;8.68;2.10;;;7.50;99.90;;;;;;5072725;28;20039;-72
2023/04/11 03:13:55;;;;;;;7.97;2.30;;;7.40;99.90;;;;;;5057972;28;20048;-72
2023/04/11 03:16:21;;;;;;;11.95;2.45;;;7.40;99.90;;;;;;5074934;28;20047;-72
2023/04/11 03:18:46;;;;;;;11.38;2.60;;;7.50;99.90;;;;;;5071182;28;20484;-71
2023/04/11 03:21:12;;;;;;;7.47;2.25;;;7.40;99.90;;;;;;5050677;28;20039;-71
2023/04/11 03:23:38;;;;;;;5.72;2.25;;;7.40;99.90;;;;;;5050714;28;20051;-71
2023/04/11 03:26:05;;;;;;;13.52;2.40;;;7.40;99.90;;;;;;5053944;28;20056;-72
2023/04/11 03:28:30;;;;;;;10.27;2.63;;;7.40;99.90;;;;;;5075794;28;20036;-72
2023/04/11 03:30:56;;;;;;;7.07;2.58;;;7.40;99.90;;;;;;5036701;28;20390;-71
2023/04/11 03:33:22;;;;;;;16.08;2.65;;;7.40;99.90;;;;;;5069057;28;20438;-71
2023/04/11 03:35:47;;;;;;;8.52;2.10;;;7.40;99.90;;;;;;5070591;28;20441;-71
2023/04/11 03:38:13;;;;;;;10.85;2.67;;;7.30;99.90;;;;;;5073005;28;20051;-70
2023/04/11 03:40:39;;;;;;;11.57;2.30;;;7.30;99.90;;;;;;5070131;28;20029;-71
2023/04/11 03:43:05;;;;;;;13.70;2.60;;;7.30;99.90;;;;;;5071613;28;20047;-70
2023/04/11 03:45:31;;;;;;;10.15;2.50;;;7.30;99.90;;;;;;5068191;28;20040;-71
2023/04/11 03:47:56;;;;;;;9.10;2.55;;;7.30;99.90;;;;;;5076483;28;20051;-69
2023/04/11 03:50:22;;;;;;;9.85;2.47;;;7.30;99.90;;;;;;5057385;28;20052;-69
2023/04/11 03:52:48;;;;;;;9.05;2.42;;;7.30;99.90;;;;;;5068467;28;20067;-70
2023/04/11 03:55:13;;;;;;;14.95;2.33;;;7.30;99.90;;;;;;5068425;28;20045;-71
2023/04/11 03:57:39;;;;;;;9.88;2.75;;;7.40;99.90;;;;;;5049159;28;20029;-70
2023/04/11 04:00:06;;;;;;;14.93;2.53;;;7.40;99.90;;;;;;5068591;28;20094;-70
2023/04/11 04:02:32;;;;;;;16.38;2.95;;;7.40;99.90;;;;;;5062281;28;20478;-70
2023/04/11 04:04:58;;;;;;;16.83;3.28;;;7.40;99.90;;;;;;5069877;28;20066;-70
2023/04/11 04:07:27;;;;;;;14.20;3.58;;;7.40;99.90;;;;;;5070518;28;20090;-70
2023/04/11 04:09:53;;;;;;;12.07;3.47;;;7.40;99.90;;;;;;5064969;28;20044;-70
2023/04/11 04:12:20;;;;;;;15.60;3.45;;;7.40;99.90;;;;;;5065286;28;20080;-70
2023/04/11 04:14:46;;;;;;;14.63;3.25;;;7.40;99.90;;;;;;5049784;28;20033;-70
2023/04/11 04:17:13;;;;;;;14.35;3.35;;;7.50;99.90;;;;;;5068213;28;20044;-70
2023/04/11 04:19:39;;;;;;;13.30;4.18;;;7.40;99.90;;;;;;5051531;28;20050;-70
2023/04/11 04:22:10;;;;;;;13.82;3.55;;;7.40;99.90;;;;;;5072612;28;20112;-69
2023/04/11 04:24:38;;;;;;;17.63;3.88;;;7.50;99.90;;;;;;5069249;28;20044;-70
2023/04/11 04:27:07;;;;;;;13.48;3.67;;;7.50;99.90;;;;;;5065668;28;20203;-69
2023/04/11 04:29:37;;;;;;;20.42;4.10;;;7.50;99.90;;;;;;5066176;28;20040;-71
2023/04/11 04:32:09;;;;;;;16.85;3.58;;;7.50;99.90;;;;;;5071382;28;20040;-70
2023/04/11 04:34:45;;;;;;;18.20;3.80;;;7.60;99.90;;;;;;5073263;28;20054;-70
2023/04/11 04:37:21;;;;;;;9.93;3.97;;;7.50;99.90;;;;;;5077312;28;20325;-70
2023/04/11 04:39:54;;;;;;;16.73;3.72;;;7.50;99.90;;;;;;5068988;28;20044;-70
2023/04/11 04:42:25;;;;;;;15.68;3.08;;;7.50;99.90;;;;;;5060448;28;20051;-70
2023/04/11 04:44:51;;;;;;;13.20;3.55;;;7.40;99.90;;;;;;5061586;28;20131;-70
2023/04/11 04:47:17;;;;;;;21.95;3.92;;;7.40;99.90;;;;;;5057280;28;20132;-70
2023/04/11 04:49:43;;;;;;;14.82;3.70;;;7.40;99.90;;;;;;5024805;28;20137;-70
2023/04/11 04:52:10;;;;;;;20.48;3.92;;;7.40;99.90;;;;;;5051106;28;20197;-70
2023/04/11 04:54:35;;;;;;;19.40;3.70;;;7.30;99.90;;;;;;5065659;28;20112;-70
2023/04/11 04:57:01;;;;;;;14.05;3.85;;;7.30;99.90;;;;;;5068466;28;20350;-70
2023/04/11 04:59:27;;;;;;;16.25;3.70;;;7.30;99.90;;;;;;5065614;28;20036;-70
2023/04/11 05:01:53;;;;;;;11.10;4.20;;;7.30;99.90;;;;;;5074142;28;20029;-73
2023/04/11 05:04:19;;;;;;;16.17;4.88;;;7.40;99.90;;;;;;5049915;28;20114;-70
2023/04/11 05:06:45;;;;;;;18.10;3.92;;;7.30;99.90;;;;;;5067352;28;20048;-70
2023/04/11 05:09:11;;;;;;;16.15;4.40;;;7.30;99.90;;;;;;5068444;28;20139;-70
2023/04/11 05:11:37;;;;;;;19.13;4.95;;;7.30;99.90;;;;;;5067281;28;20119;-70
2023/04/11 05:14:02;;;;;;;21.65;5.28;;;7.30;99.90;;;;;;5034617;28;20032;-70
2023/04/11 05:16:28;;;;;;;22.40;4.45;;;7.40;99.90;;;;;;5066020;28;20152;-70
2023/04/11 05:18:54;;;;;;;14.75;3.33;;;7.40;99.90;;;;;;5033923;28;20461;-70
2023/04/11 05:21:21;;;;;;;17.85;4.10;;;7.50;99.90;;;;;;5068895;28;20048;-70
2023/04/11 05:23:46;;;;;;;22.70;4.50;;;7.40;99.90;;;;;;5067316;28;20080;-69
2023/04/11 05:26:12;;;;;;;20.27;4.43;;;7.50;99.90;;;;;;5053789;28;20083;-70
2023/04/11 05:28:38;;;;;;;12.15;3.60;;;7.50;99.90;;;;;;5066893;28;20048;-70
2023/04/11 05:31:04;;;;;;;20.13;4.03;;;7.50;99.90;;;;;;5046532;28;20105;-70
2023/04/11 05:33:30;;;;;;;11.50;3.58;;;7.40;99.90;;;;;;5072208;28;20044;-70
2023/04/11 05:35:56;;;;;;;12.50;4.07;;;7.40;99.90;;;;;;5069016;28;20048;-71
2023/04/11 05:38:21;;;;;;;11.63;4.25;;;7.40;99.90;;;;;;5066240;28;20053;-71
2023/04/11 05:40:47;;;;;;;17.42;4.03;;;7.40;99.90;;;;;;5067779;28;20450;-70
2023/04/11 05:43:13;;;;;;;17.20;4.10;;;7.30;99.90;;;;;;5071391;28;20115;-70
2023/04/11 05:45:46;;;;;;;18.55;4.47;;;7.30;99.90;;;;;;5063499;28;20405;-71
2023/04/11 05:48:13;;;;;;;23.52;4.50;;;7.30;99.90;;;;;;5061825;28;20047;-70
2023/04/11 05:50:39;;;;;;;16.08;3.58;;;7.30;99.90;;;;;;5063026;28;20464;-71
2023/04/11 05:53:05;;;;;;;13.68;3.22;;;7.30;99.90;;;;;;5068687;28;20040;-70
2023/04/11 05:55:31;;;;;;;18.63;4.03;;;7.30;99.90;;;;;;5064920;28;20482;-70
2023/04/11 05:57:56;;;;;;;20.88;5.00;;;7.30;99.90;;;;;;5073489;28;20051;-71
2023/04/11 06:00:23;;;;;;;19.73;4.38;;;7.30;99.90;;;;;;5068955;28;20048;-71
2023/04/11 06:02:49;;;;;;;19.38;3.92;;;7.30;99.90;;;;;;5069773;28;20079;-70
2023/04/11 06:05:16;;;;;;;23.38;4.22;;;7.30;99.90;;;;;;5067637;28;20066;-70
2023/04/11 06:07:42;;;;;;;11.80;4.05;;;7.40;99.90;;;;;;5049350;28;20036;-70
2023/04/11 06:10:09;;;;;;;22.80;5.03;;;7.40;99.90;;;;;;5067316;28;20047;-70
2023/04/11 06:12:35;;;;;;;15.80;4.05;;;7.50;99.90;;;;;;5069566;28;20120;-70
2023/04/11 06:15:01;;;;;;;19.00;4.35;;;7.50;99.90;;;;;;5055499;28;20086;-71
2023/04/11 06:17:27;;;;;;;18.33;3.90;;;7.60;99.90;;;;;;5062866;28;20578;-69
2023/04/11 06:19:52;;;;;;;10.15;3.20;;;7.60;99.90;;;;;;5063868;28;20054;-69
2023/04/11 06:22:18;;;;;;;11.27;3.80;;;7.60;99.90;;;;;;5062463;28;20082;-70
2023/04/11 06:24:44;;;;;;;16.55;3.05;;;7.60;99.90;;;;;;5063750;28;20123;-69
2023/04/11 06:27:10;;;;;;;18.83;3.75;;;7.70;99.90;;;;;;5043332;28;20055;-70
2023/04/11 06:29:39;;;;;;;13.35;3.45;;;7.70;99.90;;;;;;5059294;28;20036;-70
2023/04/11 06:32:05;;;;;;;14.85;3.80;;;7.80;99.90;;;;;;5061496;28;20520;-69
2023/04/11 06:34:31;;;;;;;16.30;4.20;;;7.90;99.90;;;;;;5067542;28;20036;-69
2023/04/11 06:36:57;;;;;;;12.95;3.75;;;7.90;99.90;;;;;;5065540;28;20389;-69
2023/04/11 06:39:22;;;;;;;16.95;4.22;;;7.90;99.90;;;;;;5074229;28;20051;-69
2023/04/11 06:41:48;;;;;;;22.13;3.70;;;7.90;99.90;;;;;;5076192;28;20038;-69
2023/04/11 06:44:14;;;;;;;18.02;4.07;;;7.90;99.90;;;;;;5071824;28;20041;-69
2023/04/11 06:46:40;;;;;;;19.38;3.33;;;7.90;99.90;;;;;;5067474;28;20037;-69
2023/04/11 06:49:09;;;;;;;16.45;3.45;;;7.90;99.90;;;;;;5071634;28;20082;-70
2023/04/11 06:51:35;;;;;;;19.75;3.42;;;7.70;99.90;;;;;;5064888;28;20611;-69
2023/04/11 06:54:01;;;;;;;16.08;3.95;;;7.60;99.90;;;;;;5067007;28;20037;-69
2023/04/11 06:56:27;;;;;;;16.02;3.65;;;7.60;99.90;;;;;;5066618;28;20043;-68
2023/04/11 06:58:53;;;;;;;17.75;4.18;;;7.60;99.90;;;;;;5088325;28;20040;-68
2023/04/11 07:01:20;;;;;;;21.52;3.88;;;7.60;99.90;;;;;;5084431;28;20040;-68
2023/04/11 07:03:46;;;;;;;21.15;4.28;;;7.60;99.90;;;;;;5075188;28;20090;-68
2023/04/11 07:06:12;;;;;;;15.38;3.45;;;7.70;99.90;;;;;;5074979;28;20041;-68
2023/04/11 07:08:37;;;;;;;19.60;4.13;;;7.70;99.90;;;;;;5079389;28;20451;-68
2023/04/11 07:11:03;;;;;;;13.55;3.38;;;7.70;99.90;;;;;;5085787;28;20042;-68
2023/04/11 07:13:29;;;;;;;15.77;3.58;;;7.80;99.90;;;;;;5093454;28;20437;-68
2023/04/11 07:15:55;;;;;;;15.40;3.38;;;7.80;99.90;;;;;;5093810;28;20036;-69
2023/04/11 07:18:20;;;;;;;16.42;4.20;;;7.90;99.90;;;;;;5093569;28;20373;-69
2023/04/11 07:20:47;;;;;;;19.05;4.28;;;8.00;99.90;;;;;;5062194;28;20033;-69
2023/04/11 07:23:13;;;;;;;22.33;4.13;;;8.30;99.90;;;;;;5074185;28;20043;-69
2023/04/11 07:25:39;;;;;;;18.55;3.42;;;8.20;99.90;;;;;;5063454;28;20533;-69
2023/04/11 07:28:07;;;;;;;22.52;3.90;;;8.40;99.90;;;;;;5076625;28;20044;-69
2023/04/11 07:30:35;;;;;;;;;;;8.30;99.90;;;;;;5092569;28;20044;-69
2023/04/11 07:33:02;;;;;;;12.70;3.40;;;8.50;99.90;;;;;;5093814;28;19964;-69
2023/04/11 07:35:28;;;;;;;18.20;3.88;;;8.60;99.90;;;;;;5094764;28;20044;-68
2023/04/11 07:37:55;;;;;;;13.95;2.95;;;8.70;99.90;;;;;;5081381;28;20055;-69
2023/04/11 07:40:21;;;;;;;14.13;2.53;;;8.70;99.90;;;;;;5042468;28;20118;-69
2023/04/11 07:42:46;;;;;;;19.00;3.22;;;8.80;99.90;;;;;;5077847;28;20068;-68
2023/04/11 07:45:12;;;;;;;12.52;3.13;;;8.90;99.90;;;;;;5051432;28;20467;-69
2023/04/11 07:47:37;;;;;;;12.68;3.63;;;9.00;99.90;;;;;;5089845;28;20086;-69
2023/04/11 07:50:03;;;;;;;18.63;3.67;;;9.00;99.90;;;;;;5094148;28;20044;-68
2023/04/11 07:52:29;;;;;;;24.35;3.67;;;9.10;99.90;;;;;;5090596;28;20044;-69
2023/04/11 07:54:55;;;;;;;16.88;3.05;;;9.10;99.90;;;;;;5073397;28;20040;-69
2023/04/11 07:57:21;;;;;;;8.52;2.58;;;9.10;99.90;;;;;;5093374;28;20549;-68
2023/04/11 07:59:46;;;;;;;21.60;3.00;;;8.90;99.90;;;;;;5071341;28;20029;-69
2023/04/11 08:02:12;;;;;;;13.27;2.65;;;8.80;99.90;;;;;;5065600;28;20432;-66
2023/04/11 08:04:37;;;;;;;13.07;3.08;;;8.70;99.90;;;;;;5055506;28;20448;-69
2023/04/11 08:07:03;;;;;;;22.63;3.65;;;8.70;99.90;;;;;;5073718;28;20045;-69
2023/04/11 08:09:29;;;;;;;13.27;3.20;;;8.70;99.90;;;;;;5072678;28;20048;-69
2023/04/11 08:11:58;;;;;;;13.75;2.75;;;8.50;99.90;;;;;;5072257;28;20374;-70
2023/04/11 08:14:24;;;;;;;10.80;2.65;;;8.50;99.90;;;;;;5080237;28;20052;-69
2023/04/11 08:16:50;;;;;;;7.05;2.30;;;8.60;99.90;;;;;;5088848;28;20063;-69
2023/04/11 08:19:17;;;;;;;16.15;3.10;;;8.70;99.90;;;;;;5040207;28;20041;-69
2023/04/11 08:21:42;;;;;;;14.48;2.80;;;8.90;99.90;;;;;;5038358;28;20414;-70
2023/04/11 08:24:08;;;;;;;17.98;3.17;;;9.00;99.90;;;;;;5073878;28;20044;-67
2023/04/11 08:26:34;;;;;;;19.85;3.25;;;9.00;99.90;;;;;;5075436;28;20056;-69
2023/04/11 08:29:00;;;;;;;13.32;3.17;;;8.90;99.90;;;;;;5085733;28;20032;-69
2023/04/11 08:31:27;;;;;;;15.88;3.17;;;8.80;99.90;;;;;;5092425;28;20133;-70
2023/04/11 08:33:53;;;;;;;16.45;3.15;;;8.70;99.90;;;;;;5055373;28;20439;-69
2023/04/11 08:36:18;;;;;;;13.75;2.95;;;8.90;99.90;;;;;;5087446;28;20043;-69
2023/04/11 08:38:44;;;;;;;19.02;4.30;;;8.90;99.90;;;;;;5088203;28;20036;-69
2023/04/11 08:41:10;;;;;;;15.45;3.20;;;9.00;99.90;;;;;;5074364;28;20041;-70
2023/04/11 08:43:38;;;;;;;17.20;3.38;;;9.10;99.90;;;;;;5086261;28;20480;-70
2023/04/11 08:46:04;;;;;;;;;;;9.30;99.90;;;;;;5089097;28;20048;-69
2023/04/11 08:48:31;;;;;;;22.05;3.65;;;9.30;99.90;;;;;;5092034;28;19920;-70
2023/04/11 08:50:56;;;;;;;17.83;3.05;;;9.20;99.90;;;;;;5068872;28;20046;-69
2023/04/11 08:53:24;;;;;;;21.67;5.05;;;9.20;99.90;;;;;;5067986;28;20044;-69
2023/04/11 08:55:50;;;;;;;12.23;3.05;;;9.30;99.90;;;;;;5090278;28;20495;-69
2023/04/11 08:58:17;;;;;;;19.85;2.92;;;9.50;99.90;;;;;;5058114;28;20049;-69
2023/04/11 09:00:44;;;;;;;16.73;3.08;;;9.90;99.90;;;;;;5041324;28;20045;-69
2023/04/11 09:03:11;;;;;;;12.68;3.13;;;10.20;99.90;;;;;;5045215;28;20052;-69
2023/04/11 09:05:42;;;;;;;20.08;3.72;;;10.20;99.90;;;;;;5090395;28;20040;-69
2023/04/11 09:08:08;;;;;;;13.63;2.60;;;10.30;99.90;;;;;;5092796;28;20135;-69
2023/04/11 09:10:36;;;;;;;8.65;2.03;;;10.50;99.90;;;;;;5089472;28;20398;-69
2023/04/11 09:13:21;;;;;;;16.05;2.92;;;10.60;99.90;;;;;;5052913;28;20079;-69
2023/04/11 09:15:47;;;;;;;20.10;2.92;;;10.70;99.90;;;;;;5052371;28;20041;-69
2023/04/11 09:18:36;;;;;;;11.38;2.53;;;11.00;99.90;;;;;;5035069;28;20048;-68
2023/04/11 09:21:07;;;;;;;12.55;3.25;;;11.20;99.90;;;;;;5058930;28;20047;-68
2023/04/11 09:23:33;;;;;;;8.18;1.95;;;11.40;99.90;;;;;;5067853;28;20066;-68
2023/04/11 09:25:59;;;;;;;7.05;1.88;;;11.00;99.90;;;;;;5055883;28;20078;-68
2023/04/11 09:28:25;;;;;;;8.90;2.60;;;10.50;99.90;;;;;;5049107;28;20052;-69
2023/04/11 09:30:52;;;;;;;12.95;2.83;;;10.10;99.90;;;;;;5053060;28;20063;-68
2023/04/11 09:33:27;;;;;;;8.93;2.50;;;9.80;99.90;;;;;;5052572;28;20041;-68
2023/04/11 09:35:54;;;;;;;11.20;2.20;;;9.40;99.90;;;;;;5017920;28;20174;-68
2023/04/11 09:38:34;;;;;;;10.65;2.28;;;9.10;99.90;;;;;;5052422;28;20045;-69
2023/04/11 09:41:02;;;;;;;13.32;2.78;;;8.70;99.90;;;;;;5075883;28;20047;-69
2023/04/11 09:43:50;;;;;;;14.18;2.72;;;8.50;99.90;;;;;;5090339;28;20047;-69
2023/04/11 09:46:19;;;;;;;12.95;2.03;;;8.50;99.90;;;;;;5071864;28;20040;-71
2023/04/11 09:48:48;;;;;;;8.60;2.22;;;8.40;99.90;;;;;;5074548;28;20048;-70
2023/04/11 09:51:15;;;;;;;8.40;2.20;;;8.40;99.90;;;;;;5073871;28;20044;-69
2023/04/11 09:53:42;;;;;;;12.40;2.15;;;8.50;99.90;;;;;;5067181;28;20075;-69
2023/04/11 09:56:08;;;;;;;10.63;2.60;;;8.80;99.90;;;;;;5051202;28;20063;-69
2023/04/11 09:58:35;;;;;;;13.48;2.63;;;9.30;99.90;;;;;;5055876;28;20037;-69
2023/04/11 10:01:02;;;;;;;11.07;3.38;;;10.00;99.90;;;;;;5072208;28;20063;-69
2023/04/11 10:03:33;;;;;;;10.05;2.15;;;10.00;99.90;;;;;;5058091;28;20489;-69
2023/04/11 10:06:01;;;;;;;13.98;2.22;;;10.00;99.90;;;;;;5051844;28;20437;-70
2023/04/11 10:08:31;;;;;;;7.53;1.48;;;9.80;99.90;;;;;;5068575;28;20048;-70
2023/04/11 10:11:01;;;;;;;6.50;1.33;;;9.60;99.90;;;;;;5070587;28;20047;-70
2023/04/11 10:13:43;;;;;;;7.75;2.10;;;9.20;99.90;;;;;;5073220;28;20044;-69
2023/04/11 10:16:17;;;;;;;4.85;1.60;;;9.00;99.90;;;;;;5072943;28;20044;-69
2023/04/11 10:18:52;;;;;;;6.80;1.67;;;9.00;99.90;;;;;;5073863;28;20083;-69
2023/04/11 10:21:29;;;;;;;5.25;1.70;;;9.10;99.90;;;;;;5055830;28;20127;-69
2023/04/11 10:24:14;;;;;;;5.35;1.33;;;9.50;99.90;;;;;;5089174;28;20036;-68
2023/04/11 10:27:02;;;;;;;10.68;2.47;;;10.10;99.90;;;;;;5095611;28;20055;-69
2023/04/11 10:29:31;;;;;;;11.25;2.00;;;10.30;99.90;;;;;;5066919;28;20059;-68
2023/04/11 10:32:11;;;;;;;6.25;2.00;;;10.60;99.90;;;;;;5094109;28;20181;-69
2023/04/11 10:34:38;;;;;;;6.00;2.08;;;10.90;99.90;;;;;;5060132;28;20052;-69
2023/04/11 10:37:08;;;;;;;8.30;2.20;;;11.00;99.90;;;;;;5056310;28;20154;-69
2023/04/11 10:39:49;;;;;;;6.57;2.22;;;10.80;99.90;;;;;;5076798;28;20059;-68
2023/04/11 10:42:30;;;;;;;7.13;1.70;;;10.30;99.90;;;;;;5052625;28;20036;-68
2023/04/11 10:45:21;;;;;;;8.45;1.98;;;9.80;99.90;;;;;;5059018;28;20053;-69
2023/04/11 10:47:55;;;;;;;6.30;1.83;;;9.50;99.90;;;;;;5055552;28;20559;-68
2023/04/11 10:50:30;;;;;;;7.72;1.63;;;9.30;99.90;;;;;;5082132;28;20051;-68
2023/04/11 10:52:56;;;;;;;6.30;1.60;;;8.90;99.90;;;;;;5057760;28;20565;-69
2023/04/11 10:55:23;;;;;;;11.10;2.22;;;8.80;99.90;;;;;;5094655;28;20116;-69
2023/04/11 10:58:08;;;;;;;6.50;1.92;;;8.80;99.90;;;;;;5095930;28;20051;-71
2023/04/11 11:00:49;;;;;;;6.47;2.17;;;8.90;99.90;;;;;;5044670;28;20048;-70
2023/04/11 11:03:17;;;;;;;10.38;2.47;;;9.10;99.90;;;;;;5094646;28;20109;-70
2023/04/11 11:05:43;;;;;;;9.23;1.90;;;9.20;99.90;;;;;;5065315;28;20060;-69
2023/04/11 11:08:08;;;;;;;13.10;2.60;;;9.10;99.90;;;;;;5087405;28;20079;-69
2023/04/11 11:10:42;;;;;;;11.60;2.20;;;9.20;99.90;;;;;;5055434;28;20546;-69
2023/04/11 11:13:08;;;;;;;14.25;2.88;;;9.10;99.90;;;;;;5055130;28;20037;-69
2023/04/11 11:15:37;;;;;;;16.95;2.72;;;9.10;99.90;;;;;;5088395;28;20091;-70
2023/04/11 11:18:08;;;;;;;11.80;2.33;;;9.30;99.90;;;;;;5070238;28;20037;-69
2023/04/11 11:20:36;;;;;;;9.43;2.65;;;9.60;99.90;;;;;;5091309;28;20052;-69
2023/04/11 11:23:06;;;;;;;15.38;3.38;;;10.20;99.90;;;;;;5077511;28;20040;-69
2023/04/11 11:25:32;;;;;;;12.43;2.30;;;10.80;99.90;;;;;;5083118;28;20078;-69
2023/04/11 11:28:08;;;;;;;14.48;2.90;;;11.40;99.90;;;;;;5082726;28;20054;-69
2023/04/11 11:30:35;;;;;;;10.20;2.47;;;12.10;99.90;;;;;;5072159;28;20063;-68
2023/04/11 11:33:22;;;;;;;9.30;2.20;;;12.60;99.90;;;;;;5080526;28;20036;-69
2023/04/11 11:36:03;;;;;;;11.85;2.28;;;13.10;99.90;;;;;;5048681;28;20055;-69
2023/04/11 11:38:29;;;;;;;9.93;2.47;;;13.40;99.90;;;;;;5071118;28;20041;-69
2023/04/11 11:40:56;;;;;;;10.38;2.00;;;13.40;99.90;;;;;;5093911;28;20126;-69
2023/04/11 11:43:24;;;;;;;13.48;3.30;;;12.90;99.90;;;;;;5080075;28;20059;-69
2023/04/11 11:46:07;;;;;;;10.15;2.30;;;12.70;99.90;;;;;;5084809;28;20112;-69
2023/04/11 11:48:32;;;;;;;10.23;2.15;;;12.60;99.90;;;;;;5089419;28;20049;-69
2023/04/11 11:50:58;;;;;;;5.22;1.58;;;12.50;99.90;;;;;;5081534;28;20046;-69
2023/04/11 11:53:25;;;;;;;7.95;2.90;;;12.60;99.90;;;;;;5080545;28;20488;-69
2023/04/11 11:55:51;;;;;;;7.20;2.50;;;12.90;99.90;;;;;;5077675;28;20107;-69
2023/04/11 11:58:18;;;;;;;9.10;2.20;;;13.20;99.90;;;;;;5089022;28;21398;-69
2023/04/11 12:00:48;;;;;;;6.97;2.05;;;13.40;99.90;;;;;;5063986;28;20056;-70
2023/04/11 12:03:19;;;;;;;6.68;1.70;;;14.00;99.90;;;;;;5069051;28;20522;-69
2023/04/11 12:05:46;;;;;;;9.45;2.47;;;14.20;99.90;;;;;;5068986;28;20144;-69
2023/04/11 12:08:12;;;;;;;12.10;2.40;;;13.90;99.90;;;;;;5069357;28;20056;-69
2023/04/11 12:10:56;;;;;;;12.18;2.28;;;13.30;99.90;;;;;;5045272;28;20033;-69
2023/04/11 12:13:24;;;;;;;8.15;2.00;;;12.80;99.90;;;;;;5071262;28;20048;-69
2023/04/11 12:15:55;;;;;;;8.10;1.88;;;12.30;99.90;;;;;;5065870;28;20094;-69
2023/04/11 12:18:22;;;;;;;9.32;2.40;;;11.50;99.90;;;;;;5073274;28;20048;-69
2023/04/11 12:20:49;;;;;;;11.53;2.10;;;11.00;99.90;;;;;;5057068;28;20079;-69
2023/04/11 12:23:15;;;;;;;11.27;2.47;;;10.80;99.90;;;;;;5049199;28;20779;-69
2023/04/11 12:25:41;;;;;;;9.05;2.58;;;11.20;99.90;;;;;;5066997;28;20045;-69
2023/04/11 12:28:08;;;;;;;9.90;2.20;;;11.80;99.90;;;;;;5067640;28;20051;-69
2023/04/11 12:30:34;;;;;;;13.17;2.60;;;12.20;99.90;;;;;;5065278;28;20060;-69
2023/04/11 12:33:00;;;;;;;11.63;2.60;;;11.80;99.90;;;;;;5049909;28;20059;-69
2023/04/11 12:35:25;;;;;;;11.43;2.60;;;11.40;99.90;;;;;;5065176;28;20059;-69
2023/04/11 12:37:51;;;;;;;9.38;2.22;;;10.90;99.90;;;;;;5045638;28;20128;-69
2023/04/11 12:40:17;;;;;;;9.20;2.20;;;10.70;99.90;;;;;;5057557;28;20104;-69
2023/04/11 12:42:45;;;;;;;7.68;1.95;;;10.60;99.90;;;;;;5044047;28;20452;-69
2023/04/11 12:45:11;;;;;;;8.52;2.10;;;10.40;99.90;;;;;;5067852;28;20036;-69
2023/04/11 12:47:37;;;;;;;10.55;2.20;;;10.30;99.90;;;;;;5065452;28;20084;-69
2023/04/11 12:50:05;;;;;;;10.48;2.50;;;10.80;99.90;;;;;;5059493;28;20033;-69